sensor_id;sensor_type;location;lat;lon;timestamp;P1;durP1;ratioP1;P2;durP2;ratioP2
25349;SDS011;13302;48.796;11.978;2024-03-23T00:55:56;4.97;;;4.57;;
25349;SDS011;13302;48.796;11.978;2024-03-23T00:58:42;5.07;;;4.67;;
25349;SDS011;13302;48.796;11.978;2024-03-23T01:01:28;4.93;;;4.60;;
25349;SDS011;13302;48.796;11.978;2024-03-23T01:04:14;4.70;;;4.30;;
25349;SDS011;13302;48.796;11.978;2024-03-23T01:07:00;4.10;;;3.90;;
25349;SDS011;13302;48.796;11.978;2024-03-23T01:09:46;4.77;;;4.47;;
25349;SDS011;13302;48.796;11.978;2024-03-23T01:12:32;4.33;;;4.03;;
25349;SDS011;13302;48.796;11.978;2024-03-23T01:15:18;4.40;;;4.10;;
25349;SDS011;13302;48.796;11.978;2024-03-23T01:18:04;4.37;;;3.97;;
25349;SDS011;13302;48.796;11.978;2024-03-23T01:20:50;4.13;;;3.93;;
25349;SDS011;13302;48.796;11.978;2024-03-23T01:23:36;4.50;;;4.10;;
25349;SDS011;13302;48.796;11.978;2024-03-23T01:26:22;4.67;;;4.27;;
25349;SDS011;13302;48.796;11.978;2024-03-23T01:29:08;4.27;;;4.03;;
25349;SDS011;13302;48.796;11.978;2024-03-23T01:31:55;5.67;;;4.57;;
25349;SDS011;13302;48.796;11.978;2024-03-23T01:34:41;4.87;;;4.47;;
25349;SDS011;13302;48.796;11.978;2024-03-23T01:37:27;4.30;;;4.00;;
25349;SDS011;13302;48.796;11.978;2024-03-23T01:40:13;4.40;;;4.00;;
25349;SDS011;13302;48.796;11.978;2024-03-23T01:43:03;3.93;;;3.73;;
25349;SDS011;13302;48.796;11.978;2024-03-23T01:45:55;3.80;;;3.50;;
25349;SDS011;13302;48.796;11.978;2024-03-23T01:48:41;5.10;;;4.60;;
25349;SDS011;13302;48.796;11.978;2024-03-23T01:51:28;4.17;;;3.83;;
25349;SDS011;13302;48.796;11.978;2024-03-23T01:54:15;4.13;;;3.63;;
25349;SDS011;13302;48.796;11.978;2024-03-23T01:57:01;5.67;;;4.27;;
25349;SDS011;13302;48.796;11.978;2024-03-23T01:59:48;4.33;;;4.03;;
25349;SDS011;13302;48.796;11.978;2024-03-23T02:05:29;4.47;;;4.17;;
25349;SDS011;13302;48.796;11.978;2024-03-23T02:08:17;4.77;;;3.50;;
25349;SDS011;13302;48.796;11.978;2024-03-23T02:11:03;3.47;;;3.27;;
25349;SDS011;13302;48.796;11.978;2024-03-23T02:13:50;4.57;;;4.17;;
25349;SDS011;13302;48.796;11.978;2024-03-23T02:16:36;3.57;;;3.37;;
25349;SDS011;13302;48.796;11.978;2024-03-23T02:19:22;4.03;;;3.80;;
25349;SDS011;13302;48.796;11.978;2024-03-23T02:22:08;3.67;;;3.47;;
25349;SDS011;13302;48.796;11.978;2024-03-23T02:24:56;4.10;;;3.90;;
25349;SDS011;13302;48.796;11.978;2024-03-23T02:27:42;4.30;;;4.00;;
25349;SDS011;13302;48.796;11.978;2024-03-23T02:30:28;4.17;;;3.87;;
25349;SDS011;13302;48.796;11.978;2024-03-23T02:33:14;4.13;;;3.80;;
25349;SDS011;13302;48.796;11.978;2024-03-23T02:36:00;3.93;;;3.37;;
25349;SDS011;13302;48.796;11.978;2024-03-23T02:38:46;4.67;;;3.47;;
25349;SDS011;13302;48.796;11.978;2024-03-23T02:41:33;3.07;;;2.87;;
25349;SDS011;13302;48.796;11.978;2024-03-23T02:44:19;3.20;;;3.00;;
25349;SDS011;13302;48.796;11.978;2024-03-23T02:47:05;2.93;;;2.70;;
25349;SDS011;13302;48.796;11.978;2024-03-23T02:49:51;2.53;;;2.37;;
25349;SDS011;13302;48.796;11.978;2024-03-23T02:52:37;2.83;;;2.63;;
25349;SDS011;13302;48.796;11.978;2024-03-23T02:55:23;2.70;;;2.50;;
25349;SDS011;13302;48.796;11.978;2024-03-23T02:58:09;2.43;;;2.23;;
25349;SDS011;13302;48.796;11.978;2024-03-23T03:00:55;2.63;;;2.43;;
25349;SDS011;13302;48.796;11.978;2024-03-23T03:03:41;2.57;;;2.40;;
25349;SDS011;13302;48.796;11.978;2024-03-23T03:06:29;2.53;;;2.37;;
25349;SDS011;13302;48.796;11.978;2024-03-23T03:09:16;2.40;;;2.27;;
25349;SDS011;13302;48.796;11.978;2024-03-23T03:12:02;2.60;;;2.40;;
25349;SDS011;13302;48.796;11.978;2024-03-23T03:14:49;2.37;;;2.27;;
25349;SDS011;13302;48.796;11.978;2024-03-23T03:17:35;2.80;;;2.37;;
25349;SDS011;13302;48.796;11.978;2024-03-23T03:20:21;2.63;;;2.50;;
25349;SDS011;13302;48.796;11.978;2024-03-23T03:23:09;2.20;;;2.10;;
25349;SDS011;13302;48.796;11.978;2024-03-23T03:25:55;2.63;;;2.43;;
25349;SDS011;13302;48.796;11.978;2024-03-23T03:28:42;2.37;;;2.20;;
25349;SDS011;13302;48.796;11.978;2024-03-23T03:31:29;1.97;;;1.87;;
25349;SDS011;13302;48.796;11.978;2024-03-23T03:34:15;2.70;;;2.50;;
25349;SDS011;13302;48.796;11.978;2024-03-23T03:37:02;2.13;;;2.03;;
25349;SDS011;13302;48.796;11.978;2024-03-23T03:39:48;2.37;;;2.27;;
25349;SDS011;13302;48.796;11.978;2024-03-23T03:42:34;2.43;;;2.33;;
25349;SDS011;13302;48.796;11.978;2024-03-23T03:45:20;2.30;;;2.20;;
25349;SDS011;13302;48.796;11.978;2024-03-23T03:48:06;2.27;;;2.17;;
25349;SDS011;13302;48.796;11.978;2024-03-23T03:50:53;1.90;;;1.80;;
25349;SDS011;13302;48.796;11.978;2024-03-23T03:53:39;2.10;;;2.00;;
25349;SDS011;13302;48.796;11.978;2024-03-23T03:56:25;1.90;;;1.90;;
25349;SDS011;13302;48.796;11.978;2024-03-23T03:59:11;1.60;;;1.60;;
25349;SDS011;13302;48.796;11.978;2024-03-23T04:01:57;1.93;;;1.83;;
25349;SDS011;13302;48.796;11.978;2024-03-23T04:04:43;1.57;;;1.57;;
25349;SDS011;13302;48.796;11.978;2024-03-23T04:07:29;2.33;;;2.13;;
25349;SDS011;13302;48.796;11.978;2024-03-23T04:10:15;1.63;;;1.53;;
25349;SDS011;13302;48.796;11.978;2024-03-23T04:13:01;1.80;;;1.80;;
25349;SDS011;13302;48.796;11.978;2024-03-23T04:15:53;2.20;;;2.00;;
25349;SDS011;13302;48.796;11.978;2024-03-23T04:18:40;1.80;;;1.80;;
25349;SDS011;13302;48.796;11.978;2024-03-23T04:21:26;2.00;;;1.90;;
25349;SDS011;13302;48.796;11.978;2024-03-23T04:24:12;1.70;;;1.70;;
25349;SDS011;13302;48.796;11.978;2024-03-23T04:26:58;1.97;;;1.87;;
25349;SDS011;13302;48.796;11.978;2024-03-23T04:29:48;1.37;;;1.27;;
25349;SDS011;13302;48.796;11.978;2024-03-23T04:32:37;2.17;;;1.43;;
25349;SDS011;13302;48.796;11.978;2024-03-23T04:35:26;1.30;;;1.30;;
25349;SDS011;13302;48.796;11.978;2024-03-23T04:38:12;1.40;;;1.37;;
25349;SDS011;13302;48.796;11.978;2024-03-23T04:40:59;1.30;;;1.30;;
25349;SDS011;13302;48.796;11.978;2024-03-23T04:43:45;1.47;;;1.30;;
25349;SDS011;13302;48.796;11.978;2024-03-23T04:46:31;1.70;;;1.60;;
25349;SDS011;13302;48.796;11.978;2024-03-23T04:49:17;1.67;;;1.57;;
25349;SDS011;13302;48.796;11.978;2024-03-23T04:52:04;1.63;;;1.53;;
25349;SDS011;13302;48.796;11.978;2024-03-23T04:54:50;1.90;;;1.80;;
25349;SDS011;13302;48.796;11.978;2024-03-23T04:57:36;1.57;;;1.57;;
25349;SDS011;13302;48.796;11.978;2024-03-23T05:00:22;1.47;;;1.47;;
25349;SDS011;13302;48.796;11.978;2024-03-23T05:03:09;1.40;;;1.40;;
25349;SDS011;13302;48.796;11.978;2024-03-23T05:05:55;2.13;;;1.23;;
25349;SDS011;13302;48.796;11.978;2024-03-23T05:08:41;1.67;;;1.57;;
25349;SDS011;13302;48.796;11.978;2024-03-23T05:11:27;2.77;;;1.60;;
25349;SDS011;13302;48.796;11.978;2024-03-23T05:14:13;1.63;;;1.53;;
25349;SDS011;13302;48.796;11.978;2024-03-23T05:16:59;1.60;;;1.57;;
25349;SDS011;13302;48.796;11.978;2024-03-23T05:19:46;1.37;;;1.37;;
25349;SDS011;13302;48.796;11.978;2024-03-23T05:22:32;1.60;;;1.50;;
25349;SDS011;13302;48.796;11.978;2024-03-23T05:25:18;1.70;;;1.60;;
25349;SDS011;13302;48.796;11.978;2024-03-23T05:28:04;1.53;;;1.40;;
25349;SDS011;13302;48.796;11.978;2024-03-23T05:30:54;1.70;;;1.60;;
25349;SDS011;13302;48.796;11.978;2024-03-23T05:33:40;1.37;;;1.37;;
25349;SDS011;13302;48.796;11.978;2024-03-23T05:36:26;1.33;;;1.33;;
25349;SDS011;13302;48.796;11.978;2024-03-23T05:39:12;1.40;;;1.40;;
25349;SDS011;13302;48.796;11.978;2024-03-23T05:42:02;1.60;;;1.50;;
25349;SDS011;13302;48.796;11.978;2024-03-23T05:44:48;1.37;;;1.33;;
25349;SDS011;13302;48.796;11.978;2024-03-23T05:47:34;1.73;;;1.63;;
25349;SDS011;13302;48.796;11.978;2024-03-23T05:50:20;3.17;;;1.40;;
25349;SDS011;13302;48.796;11.978;2024-03-23T05:53:06;1.30;;;1.30;;
25349;SDS011;13302;48.796;11.978;2024-03-23T05:55:59;1.40;;;1.30;;
25349;SDS011;13302;48.796;11.978;2024-03-23T05:58:46;1.50;;;1.50;;
25349;SDS011;13302;48.796;11.978;2024-03-23T06:01:34;1.30;;;1.30;;
25349;SDS011;13302;48.796;11.978;2024-03-23T06:04:20;1.37;;;1.37;;
25349;SDS011;13302;48.796;11.978;2024-03-23T06:07:07;1.63;;;1.53;;
25349;SDS011;13302;48.796;11.978;2024-03-23T06:09:59;1.60;;;1.50;;
25349;SDS011;13302;48.796;11.978;2024-03-23T06:12:45;1.37;;;1.33;;
25349;SDS011;13302;48.796;11.978;2024-03-23T06:15:32;1.63;;;1.53;;
25349;SDS011;13302;48.796;11.978;2024-03-23T06:18:18;1.90;;;1.30;;
25349;SDS011;13302;48.796;11.978;2024-03-23T06:21:04;1.93;;;1.83;;
25349;SDS011;13302;48.796;11.978;2024-03-23T06:23:53;1.30;;;1.30;;
25349;SDS011;13302;48.796;11.978;2024-03-23T06:26:39;1.40;;;1.40;;
25349;SDS011;13302;48.796;11.978;2024-03-23T06:29:25;1.93;;;1.73;;
25349;SDS011;13302;48.796;11.978;2024-03-23T06:32:11;2.37;;;1.83;;
25349;SDS011;13302;48.796;11.978;2024-03-23T06:34:57;2.07;;;1.80;;
25349;SDS011;13302;48.796;11.978;2024-03-23T06:37:44;1.60;;;1.50;;
25349;SDS011;13302;48.796;11.978;2024-03-23T06:40:30;2.23;;;2.07;;
25349;SDS011;13302;48.796;11.978;2024-03-23T06:43:16;1.87;;;1.77;;
25349;SDS011;13302;48.796;11.978;2024-03-23T06:46:02;1.70;;;1.60;;
25349;SDS011;13302;48.796;11.978;2024-03-23T06:48:50;2.43;;;1.87;;
25349;SDS011;13302;48.796;11.978;2024-03-23T06:51:36;2.00;;;1.70;;
25349;SDS011;13302;48.796;11.978;2024-03-23T06:54:24;1.43;;;1.40;;
25349;SDS011;13302;48.796;11.978;2024-03-23T06:57:10;1.27;;;1.27;;
25349;SDS011;13302;48.796;11.978;2024-03-23T06:59:57;2.73;;;1.63;;
25349;SDS011;13302;48.796;11.978;2024-03-23T07:02:44;1.77;;;1.67;;
25349;SDS011;13302;48.796;11.978;2024-03-23T07:05:30;1.40;;;1.40;;
25349;SDS011;13302;48.796;11.978;2024-03-23T07:08:16;1.83;;;1.57;;
25349;SDS011;13302;48.796;11.978;2024-03-23T07:11:07;1.40;;;1.40;;
25349;SDS011;13302;48.796;11.978;2024-03-23T07:13:53;1.53;;;1.50;;
25349;SDS011;13302;48.796;11.978;2024-03-23T07:16:42;1.37;;;1.33;;
25349;SDS011;13302;48.796;11.978;2024-03-23T07:19:28;1.83;;;1.30;;
25349;SDS011;13302;48.796;11.978;2024-03-23T07:22:15;1.53;;;1.40;;
25349;SDS011;13302;48.796;11.978;2024-03-23T07:25:01;1.50;;;1.40;;
25349;SDS011;13302;48.796;11.978;2024-03-23T07:27:48;1.87;;;1.30;;
25349;SDS011;13302;48.796;11.978;2024-03-23T07:30:34;1.30;;;1.30;;
25349;SDS011;13302;48.796;11.978;2024-03-23T07:33:20;1.27;;;1.27;;
25349;SDS011;13302;48.796;11.978;2024-03-23T07:36:06;1.50;;;1.40;;
25349;SDS011;13302;48.796;11.978;2024-03-23T07:38:52;2.17;;;1.47;;
25349;SDS011;13302;48.796;11.978;2024-03-23T07:41:39;1.50;;;1.50;;
25349;SDS011;13302;48.796;11.978;2024-03-23T07:44:25;2.00;;;1.90;;
25349;SDS011;13302;48.796;11.978;2024-03-23T07:47:11;2.13;;;1.63;;
25349;SDS011;13302;48.796;11.978;2024-03-23T07:49:58;2.50;;;2.30;;
25349;SDS011;13302;48.796;11.978;2024-03-23T07:52:44;4.40;;;3.17;;
25349;SDS011;13302;48.796;11.978;2024-03-23T07:55:30;5.53;;;2.80;;
25349;SDS011;13302;48.796;11.978;2024-03-23T07:58:16;3.37;;;3.17;;
25349;SDS011;13302;48.796;11.978;2024-03-23T08:01:09;3.20;;;3.00;;
25349;SDS011;13302;48.796;11.978;2024-03-23T08:03:57;3.17;;;2.97;;
25349;SDS011;13302;48.796;11.978;2024-03-23T08:06:43;3.33;;;3.03;;
25349;SDS011;13302;48.796;11.978;2024-03-23T08:09:29;4.73;;;4.30;;
25349;SDS011;13302;48.796;11.978;2024-03-23T08:12:15;3.43;;;3.13;;
25349;SDS011;13302;48.796;11.978;2024-03-23T08:15:01;3.10;;;2.90;;
25349;SDS011;13302;48.796;11.978;2024-03-23T08:17:49;3.40;;;3.20;;
25349;SDS011;13302;48.796;11.978;2024-03-23T08:20:36;3.53;;;3.17;;
25349;SDS011;13302;48.796;11.978;2024-03-23T08:23:22;3.10;;;2.90;;
25349;SDS011;13302;48.796;11.978;2024-03-23T08:26:11;3.07;;;2.70;;
25349;SDS011;13302;48.796;11.978;2024-03-23T08:28:58;2.13;;;2.03;;
25349;SDS011;13302;48.796;11.978;2024-03-23T08:31:44;2.33;;;2.23;;
25349;SDS011;13302;48.796;11.978;2024-03-23T08:34:31;2.00;;;1.90;;
25349;SDS011;13302;48.796;11.978;2024-03-23T08:37:17;2.27;;;2.17;;
25349;SDS011;13302;48.796;11.978;2024-03-23T08:40:03;2.83;;;2.13;;
25349;SDS011;13302;48.796;11.978;2024-03-23T08:42:50;1.90;;;1.90;;
25349;SDS011;13302;48.796;11.978;2024-03-23T08:45:36;2.30;;;2.20;;
25349;SDS011;13302;48.796;11.978;2024-03-23T08:48:22;2.67;;;2.47;;
25349;SDS011;13302;48.796;11.978;2024-03-23T08:51:08;2.37;;;2.27;;
25349;SDS011;13302;48.796;11.978;2024-03-23T08:53:56;3.40;;;3.20;;
25349;SDS011;13302;48.796;11.978;2024-03-23T08:56:42;2.50;;;2.30;;
25349;SDS011;13302;48.796;11.978;2024-03-23T08:59:28;2.77;;;2.33;;
25349;SDS011;13302;48.796;11.978;2024-03-23T09:02:14;2.73;;;2.63;;
25349;SDS011;13302;48.796;11.978;2024-03-23T09:05:00;2.50;;;2.40;;
25349;SDS011;13302;48.796;11.978;2024-03-23T09:07:50;3.13;;;2.93;;
25349;SDS011;13302;48.796;11.978;2024-03-23T09:10:39;3.47;;;3.23;;
25349;SDS011;13302;48.796;11.978;2024-03-23T09:13:25;3.00;;;2.80;;
25349;SDS011;13302;48.796;11.978;2024-03-23T09:16:11;3.50;;;3.30;;
25349;SDS011;13302;48.796;11.978;2024-03-23T09:18:58;4.70;;;4.07;;
25349;SDS011;13302;48.796;11.978;2024-03-23T09:21:44;3.17;;;2.97;;
25349;SDS011;13302;48.796;11.978;2024-03-23T09:24:30;3.93;;;3.63;;
25349;SDS011;13302;48.796;11.978;2024-03-23T09:27:17;3.97;;;3.77;;
25349;SDS011;13302;48.796;11.978;2024-03-23T09:30:03;3.20;;;3.00;;
25349;SDS011;13302;48.796;11.978;2024-03-23T09:32:50;3.90;;;3.60;;
25349;SDS011;13302;48.796;11.978;2024-03-23T09:35:40;3.30;;;3.10;;
25349;SDS011;13302;48.796;11.978;2024-03-23T09:38:27;4.07;;;3.77;;
25349;SDS011;13302;48.796;11.978;2024-03-23T09:41:13;2.87;;;2.67;;
25349;SDS011;13302;48.796;11.978;2024-03-23T09:44:00;2.90;;;2.80;;
25349;SDS011;13302;48.796;11.978;2024-03-23T09:46:47;2.90;;;2.70;;
25349;SDS011;13302;48.796;11.978;2024-03-23T09:49:33;2.50;;;2.40;;
25349;SDS011;13302;48.796;11.978;2024-03-23T09:52:22;2.37;;;2.13;;
25349;SDS011;13302;48.796;11.978;2024-03-23T09:55:08;2.33;;;2.13;;
25349;SDS011;13302;48.796;11.978;2024-03-23T09:57:55;2.63;;;2.37;;
25349;SDS011;13302;48.796;11.978;2024-03-23T10:00:41;2.50;;;2.00;;
25349;SDS011;13302;48.796;11.978;2024-03-23T10:03:27;2.17;;;2.07;;
25349;SDS011;13302;48.796;11.978;2024-03-23T10:06:14;2.17;;;2.07;;
25349;SDS011;13302;48.796;11.978;2024-03-23T10:09:00;2.27;;;2.17;;
25349;SDS011;13302;48.796;11.978;2024-03-23T10:11:46;2.37;;;2.27;;
25349;SDS011;13302;48.796;11.978;2024-03-23T10:14:35;2.20;;;2.10;;
25349;SDS011;13302;48.796;11.978;2024-03-23T10:17:22;2.47;;;2.27;;
25349;SDS011;13302;48.796;11.978;2024-03-23T10:20:10;2.63;;;2.43;;
25349;SDS011;13302;48.796;11.978;2024-03-23T10:22:57;2.20;;;2.10;;
25349;SDS011;13302;48.796;11.978;2024-03-23T10:25:43;1.90;;;1.80;;
25349;SDS011;13302;48.796;11.978;2024-03-23T10:28:29;1.90;;;1.80;;
25349;SDS011;13302;48.796;11.978;2024-03-23T10:31:15;1.33;;;1.33;;
25349;SDS011;13302;48.796;11.978;2024-03-23T10:34:02;1.60;;;1.60;;
25349;SDS011;13302;48.796;11.978;2024-03-23T10:36:49;1.23;;;1.23;;
25349;SDS011;13302;48.796;11.978;2024-03-23T10:39:39;0.80;;;0.80;;
25349;SDS011;13302;48.796;11.978;2024-03-23T10:42:27;0.80;;;0.80;;
25349;SDS011;13302;48.796;11.978;2024-03-23T10:45:14;0.80;;;0.80;;
25349;SDS011;13302;48.796;11.978;2024-03-23T10:48:01;0.57;;;0.57;;
25349;SDS011;13302;48.796;11.978;2024-03-23T10:50:48;0.80;;;0.80;;
25349;SDS011;13302;48.796;11.978;2024-03-23T10:53:34;0.60;;;0.60;;
25349;SDS011;13302;48.796;11.978;2024-03-23T10:56:20;0.77;;;0.77;;
25349;SDS011;13302;48.796;11.978;2024-03-23T10:59:08;0.80;;;0.80;;
25349;SDS011;13302;48.796;11.978;2024-03-23T11:01:55;0.77;;;0.77;;
25349;SDS011;13302;48.796;11.978;2024-03-23T11:04:42;0.80;;;0.80;;
25349;SDS011;13302;48.796;11.978;2024-03-23T11:07:32;0.80;;;0.80;;
25349;SDS011;13302;48.796;11.978;2024-03-23T11:10:28;0.90;;;0.90;;
25349;SDS011;13302;48.796;11.978;2024-03-23T11:13:22;0.87;;;0.87;;
25349;SDS011;13302;48.796;11.978;2024-03-23T11:16:12;0.83;;;0.83;;
25349;SDS011;13302;48.796;11.978;2024-03-23T11:19:33;1.27;;;0.90;;
25349;SDS011;13302;48.796;11.978;2024-03-23T11:25:27;0.70;;;0.70;;
25349;SDS011;13302;48.796;11.978;2024-03-23T11:28:14;0.80;;;0.80;;
25349;SDS011;13302;48.796;11.978;2024-03-23T11:31:01;0.77;;;0.77;;
25349;SDS011;13302;48.796;11.978;2024-03-23T11:34:02;0.67;;;0.67;;
25349;SDS011;13302;48.796;11.978;2024-03-23T11:36:53;1.30;;;1.30;;
25349;SDS011;13302;48.796;11.978;2024-03-23T11:39:49;1.00;;;1.00;;
25349;SDS011;13302;48.796;11.978;2024-03-23T11:42:35;0.80;;;0.80;;
25349;SDS011;13302;48.796;11.978;2024-03-23T11:45:22;1.17;;;1.17;;
25349;SDS011;13302;48.796;11.978;2024-03-23T11:48:11;0.90;;;0.90;;
25349;SDS011;13302;48.796;11.978;2024-03-23T11:50:58;0.80;;;0.80;;
25349;SDS011;13302;48.796;11.978;2024-03-23T11:53:44;0.97;;;0.97;;
25349;SDS011;13302;48.796;11.978;2024-03-23T11:56:31;0.70;;;0.70;;
25349;SDS011;13302;48.796;11.978;2024-03-23T11:59:29;0.80;;;0.80;;
25349;SDS011;13302;48.796;11.978;2024-03-23T12:02:19;0.80;;;0.80;;
25349;SDS011;13302;48.796;11.978;2024-03-23T12:05:17;1.03;;;1.03;;
25349;SDS011;13302;48.796;11.978;2024-03-23T12:08:16;1.00;;;1.00;;
25349;SDS011;13302;48.796;11.978;2024-03-23T12:11:07;1.00;;;1.00;;
25349;SDS011;13302;48.796;11.978;2024-03-23T12:14:01;0.90;;;0.90;;
25349;SDS011;13302;48.796;11.978;2024-03-23T12:16:47;1.50;;;1.50;;
25349;SDS011;13302;48.796;11.978;2024-03-23T12:19:33;1.33;;;1.27;;
25349;SDS011;13302;48.796;11.978;2024-03-23T12:22:23;1.30;;;1.30;;
25349;SDS011;13302;48.796;11.978;2024-03-23T12:25:10;1.87;;;1.20;;
25349;SDS011;13302;48.796;11.978;2024-03-23T12:27:58;1.00;;;1.00;;
25349;SDS011;13302;48.796;11.978;2024-03-23T12:30:44;1.57;;;1.30;;
25349;SDS011;13302;48.796;11.978;2024-03-23T12:33:31;1.50;;;1.40;;
25349;SDS011;13302;48.796;11.978;2024-03-23T12:36:17;1.53;;;1.43;;
25349;SDS011;13302;48.796;11.978;2024-03-23T12:39:03;1.27;;;1.27;;
25349;SDS011;13302;48.796;11.978;2024-03-23T12:41:49;1.40;;;1.40;;
25349;SDS011;13302;48.796;11.978;2024-03-23T12:44:37;1.10;;;1.10;;
25349;SDS011;13302;48.796;11.978;2024-03-23T12:47:23;1.10;;;1.10;;
25349;SDS011;13302;48.796;11.978;2024-03-23T12:50:09;1.50;;;1.50;;
25349;SDS011;13302;48.796;11.978;2024-03-23T12:52:56;1.37;;;1.33;;
25349;SDS011;13302;48.796;11.978;2024-03-23T12:55:42;1.37;;;1.23;;
25349;SDS011;13302;48.796;11.978;2024-03-23T12:58:28;1.17;;;1.10;;
25349;SDS011;13302;48.796;11.978;2024-03-23T13:01:14;1.20;;;1.20;;
25349;SDS011;13302;48.796;11.978;2024-03-23T13:04:01;1.30;;;1.30;;
25349;SDS011;13302;48.796;11.978;2024-03-23T13:06:48;1.70;;;1.17;;
25349;SDS011;13302;48.796;11.978;2024-03-23T13:09:34;1.40;;;1.30;;
25349;SDS011;13302;48.796;11.978;2024-03-23T13:12:20;1.07;;;1.00;;
25349;SDS011;13302;48.796;11.978;2024-03-23T13:15:06;1.30;;;1.30;;
25349;SDS011;13302;48.796;11.978;2024-03-23T13:17:52;1.00;;;1.00;;
25349;SDS011;13302;48.796;11.978;2024-03-23T13:20:39;2.10;;;1.10;;
25349;SDS011;13302;48.796;11.978;2024-03-23T13:23:25;1.20;;;1.20;;
25349;SDS011;13302;48.796;11.978;2024-03-23T13:26:12;1.10;;;1.10;;
25349;SDS011;13302;48.796;11.978;2024-03-23T13:28:58;1.20;;;1.20;;
25349;SDS011;13302;48.796;11.978;2024-03-23T13:31:44;1.13;;;1.13;;
25349;SDS011;13302;48.796;11.978;2024-03-23T13:34:30;1.37;;;1.27;;
25349;SDS011;13302;48.796;11.978;2024-03-23T13:37:17;1.63;;;1.30;;
25349;SDS011;13302;48.796;11.978;2024-03-23T13:40:03;1.20;;;1.10;;
25349;SDS011;13302;48.796;11.978;2024-03-23T13:42:51;1.60;;;1.50;;
25349;SDS011;13302;48.796;11.978;2024-03-23T13:45:37;1.00;;;1.00;;
25349;SDS011;13302;48.796;11.978;2024-03-23T13:48:24;1.40;;;1.30;;
25349;SDS011;13302;48.796;11.978;2024-03-23T13:51:12;1.27;;;1.17;;
25349;SDS011;13302;48.796;11.978;2024-03-23T13:53:58;1.60;;;1.50;;
25349;SDS011;13302;48.796;11.978;2024-03-23T13:56:48;1.87;;;1.70;;
25349;SDS011;13302;48.796;11.978;2024-03-23T13:59:35;1.23;;;1.23;;
25349;SDS011;13302;48.796;11.978;2024-03-23T14:02:21;1.40;;;1.30;;
25349;SDS011;13302;48.796;11.978;2024-03-23T14:05:07;1.87;;;1.70;;
25349;SDS011;13302;48.796;11.978;2024-03-23T14:07:53;1.83;;;1.43;;
25349;SDS011;13302;48.796;11.978;2024-03-23T14:10:40;1.40;;;1.30;;
25349;SDS011;13302;48.796;11.978;2024-03-23T14:13:27;1.50;;;1.40;;
25349;SDS011;13302;48.796;11.978;2024-03-23T14:16:13;4.97;;;1.60;;
25349;SDS011;13302;48.796;11.978;2024-03-23T14:18:59;2.33;;;1.60;;
25349;SDS011;13302;48.796;11.978;2024-03-23T14:21:45;1.73;;;1.63;;
25349;SDS011;13302;48.796;11.978;2024-03-23T14:24:32;1.77;;;1.67;;
25349;SDS011;13302;48.796;11.978;2024-03-23T14:27:19;2.43;;;1.83;;
25349;SDS011;13302;48.796;11.978;2024-03-23T14:30:05;3.50;;;1.77;;
25349;SDS011;13302;48.796;11.978;2024-03-23T14:32:52;1.93;;;1.73;;
25349;SDS011;13302;48.796;11.978;2024-03-23T14:35:38;3.27;;;2.30;;
25349;SDS011;13302;48.796;11.978;2024-03-23T14:38:25;5.30;;;3.53;;
25349;SDS011;13302;48.796;11.978;2024-03-23T14:41:11;14.67;;;8.33;;
25349;SDS011;13302;48.796;11.978;2024-03-23T14:43:57;4.93;;;3.40;;
25349;SDS011;13302;48.796;11.978;2024-03-23T14:46:44;3.33;;;2.10;;
25349;SDS011;13302;48.796;11.978;2024-03-23T14:49:30;3.73;;;3.00;;
25349;SDS011;13302;48.796;11.978;2024-03-23T14:52:17;2.80;;;2.10;;
25349;SDS011;13302;48.796;11.978;2024-03-23T14:55:04;1.70;;;1.60;;
25349;SDS011;13302;48.796;11.978;2024-03-23T14:57:51;6.20;;;2.00;;
25349;SDS011;13302;48.796;11.978;2024-03-23T15:00:37;1.50;;;1.40;;
25349;SDS011;13302;48.796;11.978;2024-03-23T15:03:23;2.10;;;1.90;;
25349;SDS011;13302;48.796;11.978;2024-03-23T15:06:09;2.03;;;1.80;;
25349;SDS011;13302;48.796;11.978;2024-03-23T15:08:56;3.63;;;1.53;;
25349;SDS011;13302;48.796;11.978;2024-03-23T15:11:42;2.43;;;1.70;;
25349;SDS011;13302;48.796;11.978;2024-03-23T15:14:28;2.40;;;1.53;;
25349;SDS011;13302;48.796;11.978;2024-03-23T15:17:15;1.37;;;1.10;;
25349;SDS011;13302;48.796;11.978;2024-03-23T15:20:01;1.20;;;1.20;;
25349;SDS011;13302;48.796;11.978;2024-03-23T15:22:47;2.87;;;2.00;;
25349;SDS011;13302;48.796;11.978;2024-03-23T15:25:33;1.50;;;1.40;;
25349;SDS011;13302;48.796;11.978;2024-03-23T15:28:19;2.70;;;1.40;;
25349;SDS011;13302;48.796;11.978;2024-03-23T15:31:05;1.67;;;1.43;;
25349;SDS011;13302;48.796;11.978;2024-03-23T15:33:52;1.60;;;1.50;;
25349;SDS011;13302;48.796;11.978;2024-03-23T15:36:38;2.00;;;1.50;;
25349;SDS011;13302;48.796;11.978;2024-03-23T15:39:24;3.13;;;1.70;;
25349;SDS011;13302;48.796;11.978;2024-03-23T15:42:11;1.70;;;1.33;;
25349;SDS011;13302;48.796;11.978;2024-03-23T15:44:57;1.90;;;1.23;;
25349;SDS011;13302;48.796;11.978;2024-03-23T15:47:43;3.40;;;1.60;;
25349;SDS011;13302;48.796;11.978;2024-03-23T15:50:29;2.03;;;1.23;;
25349;SDS011;13302;48.796;11.978;2024-03-23T15:53:15;3.80;;;1.90;;
25349;SDS011;13302;48.796;11.978;2024-03-23T15:56:02;1.17;;;1.17;;
25349;SDS011;13302;48.796;11.978;2024-03-23T15:58:48;2.07;;;1.50;;
25349;SDS011;13302;48.796;11.978;2024-03-23T16:01:35;2.87;;;1.70;;
25349;SDS011;13302;48.796;11.978;2024-03-23T16:04:21;2.93;;;1.40;;
25349;SDS011;13302;48.796;11.978;2024-03-23T16:07:07;3.70;;;1.30;;
25349;SDS011;13302;48.796;11.978;2024-03-23T16:09:53;5.00;;;1.27;;
25349;SDS011;13302;48.796;11.978;2024-03-23T16:12:39;1.23;;;1.13;;
25349;SDS011;13302;48.796;11.978;2024-03-23T16:15:26;1.53;;;1.10;;
25349;SDS011;13302;48.796;11.978;2024-03-23T16:18:12;2.23;;;1.57;;
25349;SDS011;13302;48.796;11.978;2024-03-23T16:20:59;2.57;;;1.73;;
25349;SDS011;13302;48.796;11.978;2024-03-23T16:23:46;3.17;;;1.60;;
25349;SDS011;13302;48.796;11.978;2024-03-23T16:26:32;3.03;;;1.60;;
25349;SDS011;13302;48.796;11.978;2024-03-23T16:29:18;2.57;;;1.10;;
25349;SDS011;13302;48.796;11.978;2024-03-23T16:32:05;3.67;;;1.57;;
25349;SDS011;13302;48.796;11.978;2024-03-23T16:34:51;1.40;;;1.30;;
25349;SDS011;13302;48.796;11.978;2024-03-23T16:37:37;2.10;;;1.30;;
25349;SDS011;13302;48.796;11.978;2024-03-23T16:40:23;1.83;;;1.33;;
25349;SDS011;13302;48.796;11.978;2024-03-23T16:43:10;1.80;;;1.10;;
25349;SDS011;13302;48.796;11.978;2024-03-23T16:48:43;1.40;;;1.20;;
25349;SDS011;13302;48.796;11.978;2024-03-23T16:51:30;3.57;;;1.47;;
25349;SDS011;13302;48.796;11.978;2024-03-23T16:54:16;4.67;;;2.30;;
25349;SDS011;13302;48.796;11.978;2024-03-23T16:57:02;4.73;;;2.80;;
25349;SDS011;13302;48.796;11.978;2024-03-23T16:59:48;2.90;;;2.50;;
25349;SDS011;13302;48.796;11.978;2024-03-23T17:02:34;1.70;;;1.50;;
25349;SDS011;13302;48.796;11.978;2024-03-23T17:05:23;1.40;;;1.30;;
25349;SDS011;13302;48.796;11.978;2024-03-23T17:08:09;2.70;;;1.73;;
25349;SDS011;13302;48.796;11.978;2024-03-23T17:11:02;1.73;;;1.57;;
25349;SDS011;13302;48.796;11.978;2024-03-23T17:13:51;10.30;;;6.27;;
25349;SDS011;13302;48.796;11.978;2024-03-23T17:16:41;1.20;;;1.13;;
25349;SDS011;13302;48.796;11.978;2024-03-23T17:19:28;1.93;;;1.83;;
25349;SDS011;13302;48.796;11.978;2024-03-23T17:22:14;1.30;;;1.20;;
25349;SDS011;13302;48.796;11.978;2024-03-23T17:25:00;1.50;;;1.40;;
25349;SDS011;13302;48.796;11.978;2024-03-23T17:27:46;1.63;;;1.23;;
25349;SDS011;13302;48.796;11.978;2024-03-23T17:30:32;1.20;;;0.97;;
25349;SDS011;13302;48.796;11.978;2024-03-23T17:33:18;1.50;;;0.73;;